Vannes, Francia

5:56 AM CET en Diciembre 22, 2014 (GMT +0100)
Saint - Armel | Change Station
CLOSE
Current Station
Estación meteorológica personal
Location: Saint - Armel, 56450, BRETAGNE
Altura: 3 ft
Estaciones meteorológicas cercanas

Alt 3 ft 47.58 °N, 2.71 °W | Updated 4 seconds ago

Overcast
Nublado
52.2 ° F
Sensación térmica 52.2 ° F
N
5.8
Viento Variable Viento desde OSO
Gusts 9.6 mph

Hoy
Alta -- | Baja -- ° F
--% Posibilidad de precipitaciones
Ayer
Alta -- | Baja -- ° F
Precip. -- pul
8:56 AM 5:22 PM
Luna nueva, 0% visible
Presión 30.42 pul
Visibilidad 6.2 Millas
Nubes Muy nublado 1400 ft
Muy nublado 2000 ft
Nublado 2500 ft
Punto de rocío 48 ° F
Humedad 85%
Precipitaciones 0.00 pul
Espesor de la nieve No disponible.
UV 0 de una escala de 12
Polen No disponible.
Calidad del aire No disponible.
Flu Activity No disponible.
METAR LFRH 220430Z AUTO 24012KT 9999 BKN014 BKN020 OVC025 11/09 Q1030

More Conditions Fewer Conditions

Presión 30.42 pul
Visibilidad 6.2 Millas
Nubes Muy nublado 1400 ft
Muy nublado 2000 ft
Nublado 2500 ft
Punto de rocío 48 ° F
Humedad 85%
Precipitaciones 0.00 pul
Espesor de la nieve No disponible.
UV 0 de una escala de 12
Polen No disponible.
Calidad del aire No disponible.
Flu Activity No disponible.
METAR LFRH 220430Z AUTO 24012KT 9999 BKN014 BKN020 OVC025 11/09 Q1030

More Conditions Fewer Conditions

10-Day Weather Forecast

Almanac

Astronomía

Dec. 22, 2014 Salida Puesta
Hora real
Crepúsculo civil
Crepúsculo náutico
Crepúsculo astronómico
Luna
Horas de luz
Horas de luz
Tomorrow will be .
, % of the Moon is Illuminated

Extremos de hoy

Máximos del país Bajas del país

Community

WunderPhotos

Upload Photos

1,779,540 ¡fotos cargadas!

WunderBlogs® & News

Nearby

Calidad del aire

  Calidad del aire Índice AQ Contaminante
Not available.

Grosos de nieve

Estación Profundido Altura

Actividad de terremotos

Ciudad Distance Mag. Tiempo y dato
Magnitud mínima muestra es 2,5.

Temperaturas de aguas costeras

Lugar Temperatura

Estaciones meteorológicas cercanas